createdAt,value
2019-06-09T00:01:51.813Z,18.30
2019-06-09T00:04:23.334Z,18.20
2019-06-09T00:06:57.072Z,18.20
2019-06-09T00:09:28.672Z,18.10
2019-06-09T00:12:00.863Z,18.00
2019-06-09T00:14:32.500Z,18.00
2019-06-09T00:17:04.261Z,18.10
2019-06-09T00:19:37.354Z,18.10
2019-06-09T00:22:09.939Z,18.10
2019-06-09T00:24:42.952Z,18.00
2019-06-09T00:27:14.318Z,18.00
2019-06-09T00:29:48.348Z,17.90
2019-06-09T00:32:22.340Z,18.00
2019-06-09T00:34:53.803Z,18.10
2019-06-09T00:37:27.269Z,18.20
2019-06-09T00:39:59.281Z,18.20
2019-06-09T00:42:31.490Z,18.20
2019-06-09T00:45:04.159Z,18.30
2019-06-09T00:47:37.478Z,18.30
2019-06-09T00:50:13.648Z,18.30
2019-06-09T00:52:48.889Z,18.10
2019-06-09T00:55:23.599Z,17.90
2019-06-09T00:57:53.641Z,17.90
2019-06-09T01:00:27.467Z,17.80
2019-06-09T01:02:58.403Z,17.80
2019-06-09T01:05:29.941Z,18.00
2019-06-09T01:08:01.317Z,18.20
2019-06-09T01:10:32.864Z,18.20
2019-06-09T01:13:04.246Z,18.10
2019-06-09T01:15:37.710Z,18.00
2019-06-09T01:18:11.201Z,17.90
2019-06-09T01:20:42.849Z,17.90
2019-06-09T01:23:14.331Z,17.80
2019-06-09T01:25:47.352Z,17.70
2019-06-09T01:28:20.321Z,17.70
2019-06-09T01:30:53.217Z,17.70
2019-06-09T01:33:24.587Z,17.70
2019-06-09T01:35:57.536Z,17.80
2019-06-09T01:38:29.189Z,17.90
2019-06-09T01:41:00.732Z,17.90
2019-06-09T01:43:32.146Z,17.90
2019-06-09T01:46:03.731Z,17.90
2019-06-09T01:48:35.207Z,17.90
2019-06-09T01:51:08.091Z,18.00
2019-06-09T01:53:39.641Z,18.00
2019-06-09T01:56:12.267Z,17.90
2019-06-09T01:58:44.905Z,17.90
2019-06-09T02:01:20.023Z,17.90
2019-06-09T02:03:49.394Z,17.90
2019-06-09T02:06:22.030Z,17.90
2019-06-09T02:08:53.991Z,17.90
2019-06-09T02:11:27.315Z,17.90
2019-06-09T02:13:58.425Z,17.80
2019-06-09T02:16:29.868Z,17.90
2019-06-09T02:19:01.229Z,17.90
2019-06-09T02:21:32.999Z,17.70
2019-06-09T02:24:08.242Z,17.80
2019-06-09T02:26:39.524Z,17.70
2019-06-09T02:29:10.992Z,17.70
2019-06-09T02:31:43.023Z,17.80
2019-06-09T02:34:17.331Z,17.80
2019-06-09T02:36:54.075Z,17.90
2019-06-09T02:39:30.499Z,18.00
2019-06-09T02:41:56.548Z,17.60
2019-06-09T02:44:35.489Z,17.60
2019-06-09T02:47:13.187Z,17.80
2019-06-09T02:49:45.609Z,17.80
2019-06-09T02:52:18.866Z,17.80
2019-06-09T02:54:52.724Z,17.70
2019-06-09T02:57:30.090Z,17.70
2019-06-09T02:59:56.907Z,17.70
2019-06-09T03:02:33.107Z,17.70
2019-06-09T03:05:02.989Z,17.70
2019-06-09T03:07:40.483Z,17.80
2019-06-09T03:10:08.436Z,18.00
2019-06-09T03:12:44.125Z,18.10
2019-06-09T03:15:14.248Z,18.10
2019-06-09T03:17:46.696Z,18.20
2019-06-09T03:20:18.906Z,18.30
2019-06-09T03:22:52.363Z,18.30
2019-06-09T03:25:27.544Z,18.30
2019-06-09T03:27:56.713Z,18.30
2019-06-09T03:30:42.134Z,18.20
2019-06-09T03:36:27.264Z,18.10
2019-06-09T03:38:19.410Z,18.10
2019-06-09T03:40:46.041Z,18.20
2019-06-09T03:43:14.980Z,18.30
2019-06-09T03:45:46.351Z,18.30
2019-06-09T03:48:17.874Z,18.40
2019-06-09T03:50:55.891Z,18.50
2019-06-09T03:53:28.859Z,18.50
2019-06-09T03:55:57.470Z,18.60
2019-06-09T03:58:38.141Z,18.60
2019-06-09T04:01:02.860Z,18.50
2019-06-09T04:03:41.212Z,18.70
2019-06-09T04:06:23.411Z,18.70
2019-06-09T04:08:45.942Z,18.70
2019-06-09T04:11:15.582Z,18.60
2019-06-09T04:13:48.027Z,18.60
2019-06-09T04:16:22.793Z,18.80
2019-06-09T04:18:53.280Z,18.80
2019-06-09T04:21:28.837Z,18.90
2019-06-09T04:24:01.866Z,19.10
2019-06-09T04:26:38.227Z,19.20
2019-06-09T04:29:07.697Z,19.30
2019-06-09T04:31:44.419Z,19.40
2019-06-09T04:34:13.374Z,19.40
2019-06-09T04:36:56.383Z,19.50
2019-06-09T04:39:18.443Z,19.60
2019-06-09T04:41:52.106Z,19.60
2019-06-09T04:44:25.205Z,19.70
2019-06-09T04:46:56.097Z,19.80
2019-06-09T04:49:30.000Z,20.10
2019-06-09T04:52:01.965Z,20.30
2019-06-09T04:54:37.958Z,20.50
2019-06-09T04:57:07.016Z,20.70
2019-06-09T04:59:43.194Z,20.90
2019-06-09T05:02:12.275Z,21.10
2019-06-09T05:04:48.874Z,21.30
2019-06-09T05:07:27.391Z,21.40
2019-06-09T05:09:52.928Z,21.60
2019-06-09T05:12:24.158Z,21.70
2019-06-09T05:14:55.942Z,21.90
2019-06-09T05:17:28.623Z,22.10
2019-06-09T05:20:01.985Z,22.20
2019-06-09T05:22:37.889Z,22.30
2019-06-09T05:25:07.571Z,22.40
2019-06-09T05:27:45.172Z,22.70
2019-06-09T05:30:13.560Z,23.80
2019-06-09T05:32:46.859Z,24.50
2019-06-09T05:35:21.548Z,25.20
2019-06-09T05:37:53.205Z,25.60
2019-06-09T05:40:24.616Z,26.00
2019-06-09T05:42:57.133Z,26.30
2019-06-09T05:45:28.538Z,26.40
2019-06-09T05:48:01.256Z,25.90
2019-06-09T05:50:34.560Z,25.50
2019-06-09T05:53:06.087Z,25.80
2019-06-09T05:55:38.289Z,26.20
2019-06-09T05:58:11.361Z,26.80
2019-06-09T06:00:45.399Z,26.70
2019-06-09T06:03:16.211Z,27.10
2019-06-09T06:05:47.837Z,27.00
2019-06-09T06:10:51.161Z,27.10
2019-06-09T06:13:22.644Z,27.40
2019-06-09T06:15:53.827Z,27.70
2019-06-09T06:18:25.139Z,27.60
2019-06-09T06:20:56.621Z,27.70
2019-06-09T06:23:27.937Z,27.70
2019-06-09T06:26:03.911Z,27.90
2019-06-09T06:28:33.508Z,28.00
2019-06-09T06:31:04.940Z,28.10
2019-06-09T06:33:36.408Z,28.10
2019-06-09T06:36:07.639Z,28.20
2019-06-09T06:38:41.754Z,28.30
2019-06-09T06:41:22.717Z,28.60
2019-06-09T06:43:53.952Z,28.50
2019-06-09T06:46:25.232Z,28.00
2019-06-09T06:48:56.919Z,28.20
2019-06-09T06:51:28.145Z,28.40
2019-06-09T06:54:01.016Z,28.00
2019-06-09T06:56:32.138Z,28.10
2019-06-09T06:59:03.719Z,28.00
2019-06-09T07:01:34.971Z,28.40
2019-06-09T07:04:06.354Z,28.70
2019-06-09T07:06:37.500Z,28.90
2019-06-09T07:09:10.931Z,29.10
2019-06-09T07:11:43.068Z,29.00
2019-06-09T07:14:15.471Z,29.20
2019-06-09T07:16:46.864Z,29.00
2019-06-09T07:19:20.620Z,29.30
2019-06-09T07:21:51.957Z,29.50
2019-06-09T07:24:24.829Z,29.50
2019-06-09T07:27:04.145Z,29.70
2019-06-09T07:29:36.627Z,29.80
2019-06-09T07:32:07.928Z,29.80
2019-06-09T07:34:42.304Z,29.70
2019-06-09T07:37:12.268Z,29.50
2019-06-09T07:39:45.504Z,30.00
2019-06-09T07:42:20.991Z,30.00
2019-06-09T07:44:55.851Z,30.30
2019-06-09T07:47:25.340Z,30.20
2019-06-09T07:49:57.049Z,30.30
2019-06-09T07:52:28.230Z,30.30
2019-06-09T07:55:01.295Z,30.00
2019-06-09T07:57:32.323Z,29.80
2019-06-09T08:00:03.848Z,29.90
2019-06-09T08:02:35.588Z,30.20
2019-06-09T08:05:06.870Z,30.70
2019-06-09T08:07:38.311Z,31.00
2019-06-09T08:10:10.886Z,31.00
2019-06-09T08:12:43.822Z,31.30
2019-06-09T08:15:15.421Z,31.40
2019-06-09T08:17:47.569Z,31.60
2019-06-09T08:20:21.655Z,31.60
2019-06-09T08:22:55.550Z,31.80
2019-06-09T08:25:25.469Z,31.90
2019-06-09T08:27:56.746Z,32.00
2019-06-09T08:30:40.845Z,32.10
2019-06-09T08:33:24.768Z,32.20
2019-06-09T08:35:58.169Z,32.10
2019-06-09T08:38:49.005Z,32.30
2019-06-09T08:41:11.476Z,32.30
2019-06-09T08:43:43.517Z,32.10
2019-06-09T08:46:15.119Z,32.40
2019-06-09T08:48:47.824Z,32.50
2019-06-09T08:51:21.328Z,32.50
2019-06-09T08:53:54.165Z,32.60
2019-06-09T08:56:27.118Z,32.70
2019-06-09T08:58:58.484Z,32.80
2019-06-09T09:01:31.685Z,32.70
2019-06-09T09:04:03.729Z,32.90
2019-06-09T09:06:35.153Z,33.00
2019-06-09T09:09:18.969Z,32.90
2019-06-09T09:11:41.665Z,33.00
2019-06-09T09:14:13.749Z,33.10
2019-06-09T09:16:45.000Z,33.10
2019-06-09T09:19:16.691Z,33.10
2019-06-09T09:21:48.837Z,33.00
2019-06-09T09:24:51.489Z,33.10
2019-06-09T09:26:57.187Z,33.10
2019-06-09T09:29:26.447Z,33.20
2019-06-09T09:31:58.764Z,33.10
2019-06-09T09:34:32.006Z,32.80
2019-06-09T09:37:03.497Z,33.10
2019-06-09T09:39:35.950Z,33.30
2019-06-09T09:42:08.481Z,33.10
2019-06-09T09:44:41.568Z,33.10
2019-06-09T09:47:13.297Z,33.10
2019-06-09T09:49:45.783Z,33.30
2019-06-09T09:52:17.680Z,33.30
2019-06-09T09:54:52.748Z,33.30
2019-06-09T09:57:22.516Z,33.20
2019-06-09T09:59:56.213Z,33.40
2019-06-09T10:02:26.569Z,33.70
2019-06-09T10:04:58.185Z,33.80
2019-06-09T10:07:31.617Z,33.80
2019-06-09T10:10:04.903Z,32.70
2019-06-09T10:12:36.793Z,32.10
2019-06-09T10:15:08.744Z,32.60
2019-06-09T10:17:41.925Z,32.60
2019-06-09T10:20:13.796Z,32.30
2019-06-09T10:22:45.025Z,32.40
2019-06-09T10:25:19.627Z,32.70
2019-06-09T10:27:52.453Z,32.50
2019-06-09T10:30:23.578Z,32.70
2019-06-09T10:32:57.268Z,32.70
2019-06-09T10:35:27.725Z,32.60
2019-06-09T10:38:00.293Z,32.20
2019-06-09T10:40:32.057Z,33.10
2019-06-09T10:43:04.425Z,32.40
2019-06-09T10:45:36.358Z,33.00
2019-06-09T10:48:07.586Z,32.40
2019-06-09T10:50:41.245Z,32.60
2019-06-09T10:53:11.911Z,33.30
2019-06-09T10:55:43.133Z,33.70
2019-06-09T10:58:26.807Z,33.70
2019-06-09T11:00:59.389Z,33.70
2019-06-09T11:03:30.985Z,33.90
2019-06-09T11:06:04.457Z,33.60
2019-06-09T11:08:35.568Z,33.50
2019-06-09T11:11:06.901Z,33.10
2019-06-09T11:13:38.339Z,32.90
2019-06-09T11:16:11.794Z,32.90
2019-06-09T11:18:43.319Z,33.20
2019-06-09T11:21:14.363Z,33.30
2019-06-09T11:23:45.725Z,33.50
2019-06-09T11:26:16.986Z,33.70
2019-06-09T11:28:48.312Z,33.70
2019-06-09T11:31:20.679Z,33.50
2019-06-09T11:33:53.624Z,33.50
2019-06-09T11:36:27.608Z,33.70
2019-06-09T11:39:01.796Z,33.70
2019-06-09T11:41:34.236Z,33.70
2019-06-09T11:44:05.624Z,33.70
2019-06-09T11:46:38.702Z,33.60
2019-06-09T11:49:12.823Z,33.70
2019-06-09T11:51:43.197Z,33.70
2019-06-09T11:54:14.687Z,33.60
2019-06-09T11:56:45.957Z,33.70
2019-06-09T11:59:17.119Z,33.30
2019-06-09T12:01:51.302Z,33.40
2019-06-09T12:04:22.058Z,33.30
2019-06-09T12:06:53.603Z,33.60
2019-06-09T12:09:25.218Z,33.40
2019-06-09T12:11:57.687Z,33.10
2019-06-09T12:14:29.151Z,33.40
2019-06-09T12:17:03.076Z,33.60
2019-06-09T12:19:33.539Z,33.70
2019-06-09T12:22:05.859Z,33.70
2019-06-09T12:24:41.162Z,33.60
2019-06-09T12:27:11.948Z,33.60
2019-06-09T12:29:45.359Z,33.70
2019-06-09T12:32:16.575Z,33.50
2019-06-09T12:34:47.772Z,33.10
2019-06-09T12:37:21.562Z,33.10
2019-06-09T12:39:52.580Z,32.80
2019-06-09T12:42:24.155Z,33.40
2019-06-09T12:44:56.475Z,33.70
2019-06-09T12:47:27.800Z,33.60
2019-06-09T12:50:01.675Z,33.70
2019-06-09T12:52:32.028Z,33.20
2019-06-09T12:55:05.641Z,33.30
2019-06-09T12:57:36.807Z,32.90
2019-06-09T13:00:17.512Z,32.80
2019-06-09T13:02:42.571Z,32.60
2019-06-09T13:05:14.548Z,32.70
2019-06-09T13:07:47.711Z,32.40
2019-06-09T13:10:21.568Z,32.30
2019-06-09T13:12:53.186Z,32.50
2019-06-09T13:15:24.595Z,32.50
2019-06-09T13:17:56.078Z,32.10
2019-06-09T13:20:27.684Z,32.10
2019-06-09T13:23:02.552Z,32.00
2019-06-09T13:25:34.601Z,31.70
2019-06-09T13:28:06.455Z,31.30
2019-06-09T13:30:40.975Z,30.70
2019-06-09T13:33:13.915Z,30.80
2019-06-09T13:35:45.647Z,31.20
2019-06-09T13:38:17.125Z,30.60
2019-06-09T13:40:48.576Z,30.20
2019-06-09T13:43:21.900Z,30.10
2019-06-09T13:45:53.141Z,30.00
2019-06-09T13:48:24.510Z,30.10
2019-06-09T13:50:56.525Z,30.10
2019-06-09T13:53:27.944Z,29.90
2019-06-09T13:56:01.369Z,30.50
2019-06-09T13:58:32.395Z,30.90
2019-06-09T14:01:06.326Z,30.60
2019-06-09T14:03:40.638Z,30.10
2019-06-09T14:06:14.493Z,30.60
2019-06-09T14:08:46.396Z,30.70
2019-06-09T14:11:18.231Z,30.90
2019-06-09T14:13:51.127Z,30.70
2019-06-09T14:16:32.350Z,30.50
2019-06-09T14:19:03.851Z,30.60
2019-06-09T14:21:35.348Z,30.80
2019-06-09T14:24:07.858Z,30.50
2019-06-09T14:26:41.476Z,31.00
2019-06-09T14:29:14.828Z,31.20
2019-06-09T14:31:59.934Z,30.90
2019-06-09T14:34:21.963Z,30.90
2019-06-09T14:36:52.132Z,31.10
2019-06-09T14:39:23.548Z,31.20
2019-06-09T14:41:55.079Z,31.50
2019-06-09T14:44:26.600Z,31.60
2019-06-09T14:47:05.687Z,31.60
2019-06-09T14:49:37.597Z,31.10
2019-06-09T14:52:09.834Z,31.40
2019-06-09T14:54:42.077Z,31.70
2019-06-09T14:57:14.929Z,31.60
2019-06-09T14:59:47.197Z,31.60
2019-06-09T15:02:21.050Z,31.30
2019-06-09T15:04:51.718Z,31.20
2019-06-09T15:07:23.230Z,31.20
2019-06-09T15:09:54.730Z,30.90
2019-06-09T15:12:38.129Z,31.10
2019-06-09T15:15:01.019Z,30.80
2019-06-09T15:17:32.875Z,31.10
2019-06-09T15:20:04.561Z,30.90
2019-06-09T15:22:36.047Z,31.10
2019-06-09T15:25:12.448Z,31.20
2019-06-09T15:27:41.975Z,31.20
2019-06-09T15:30:17.487Z,31.30
2019-06-09T15:32:46.911Z,31.30
2019-06-09T15:35:22.278Z,31.30
2019-06-09T15:38:01.220Z,30.90
2019-06-09T15:40:24.917Z,30.60
2019-06-09T15:42:56.481Z,30.60
2019-06-09T15:45:27.965Z,30.30
2019-06-09T15:48:00.903Z,30.70
2019-06-09T15:50:32.516Z,30.70
2019-06-09T15:53:04.421Z,29.90
2019-06-09T15:55:36.481Z,29.80
2019-06-09T15:58:07.958Z,29.80
2019-06-09T16:00:41.818Z,29.90
2019-06-09T16:03:13.948Z,30.80
2019-06-09T16:05:50.573Z,30.90
2019-06-09T16:08:23.925Z,30.50
2019-06-09T16:15:58.207Z,30.30
2019-06-09T16:18:31.062Z,30.00
2019-06-09T16:21:02.859Z,30.10
2019-06-09T16:28:36.124Z,30.30
2019-06-09T16:58:51.537Z,29.20
2019-06-09T17:01:27.102Z,27.60
2019-06-09T17:03:58.663Z,27.30
2019-06-09T17:06:32.764Z,27.20
2019-06-09T17:09:06.262Z,27.20
2019-06-09T17:11:41.231Z,27.30
2019-06-09T17:14:12.167Z,27.20
2019-06-09T17:16:44.291Z,27.20
2019-06-09T17:19:15.856Z,27.10
2019-06-09T17:21:51.182Z,27.00
2019-06-09T17:24:27.371Z,26.90
2019-06-09T17:27:01.904Z,26.80
2019-06-09T17:29:38.699Z,26.70
2019-06-09T17:32:11.934Z,26.60
2019-06-09T17:34:43.707Z,26.50
2019-06-09T17:37:15.223Z,26.40
2019-06-09T17:39:48.695Z,26.40
2019-06-09T17:42:22.099Z,26.40
2019-06-09T17:44:53.243Z,26.30
2019-06-09T17:47:24.898Z,26.20
2019-06-09T17:55:12.653Z,26.10
2019-06-09T18:00:18.250Z,25.90
2019-06-09T18:02:59.337Z,25.90
2019-06-09T18:05:22.947Z,25.80
2019-06-09T18:07:54.425Z,25.70
2019-06-09T18:10:25.971Z,25.70
2019-06-09T18:12:57.480Z,25.70
2019-06-09T18:15:32.914Z,25.70
2019-06-09T18:18:03.919Z,25.60
2019-06-09T18:20:36.299Z,25.60
2019-06-09T18:23:08.630Z,25.50
2019-06-09T18:25:41.980Z,25.50
2019-06-09T18:28:13.748Z,25.50
2019-06-09T18:30:53.999Z,25.50
2019-06-09T18:33:18.201Z,25.50
2019-06-09T18:35:51.732Z,25.50
2019-06-09T18:38:22.998Z,25.50
2019-06-09T18:40:56.070Z,25.40
2019-06-09T18:43:28.286Z,25.40
2019-06-09T18:46:01.608Z,25.40
2019-06-09T18:48:36.584Z,25.30
2019-06-09T18:51:06.578Z,25.30
2019-06-09T18:53:38.240Z,25.20
2019-06-09T18:56:09.850Z,25.20
2019-06-09T18:58:43.265Z,25.10
2019-06-09T19:01:14.552Z,25.10
2019-06-09T20:31:57.910Z,25.00
2019-06-09T20:34:31.043Z,23.70
2019-06-09T20:37:02.966Z,23.60
2019-06-09T20:39:38.435Z,23.50
2019-06-09T20:42:08.167Z,23.50
2019-06-09T20:44:42.796Z,23.50
2019-06-09T20:47:12.870Z,23.40
2019-06-09T20:49:47.064Z,23.30
2019-06-09T20:52:17.642Z,23.30
2019-06-09T20:54:51.790Z,23.30
2019-06-09T20:57:22.196Z,23.50
2019-06-09T20:59:55.170Z,23.50
2019-06-09T21:02:26.828Z,23.60
2019-06-09T21:05:01.147Z,23.60
2019-06-09T21:07:33.922Z,23.70
2019-06-09T21:10:06.145Z,23.70
2019-06-09T21:12:40.718Z,23.70
2019-06-09T21:15:12.337Z,23.80
2019-06-09T21:17:50.543Z,23.80
2019-06-09T21:20:17.630Z,23.60
2019-06-09T21:22:50.097Z,23.50
2019-06-09T21:25:21.764Z,23.50
2019-06-09T21:27:54.572Z,23.30
2019-06-09T21:30:35.125Z,23.20
2019-06-09T21:33:06.510Z,23.20
2019-06-09T21:35:37.966Z,23.10
2019-06-09T21:38:10.939Z,23.00
2019-06-09T21:40:43.301Z,22.90
2019-06-09T21:43:15.503Z,22.90
2019-06-09T21:45:48.032Z,22.90
2019-06-09T21:48:19.637Z,22.90
2019-06-09T21:50:53.547Z,22.90
2019-06-09T21:53:24.193Z,22.80
2019-06-09T21:55:56.997Z,22.80
2019-06-09T21:58:28.396Z,22.80
2019-06-09T22:01:01.050Z,22.70
2019-06-09T22:03:32.725Z,22.70
2019-06-09T22:06:04.341Z,22.70
2019-06-09T22:08:36.155Z,22.60
2019-06-09T22:11:07.802Z,22.50
2019-06-09T22:13:40.850Z,22.50
2019-06-09T22:16:12.313Z,22.40
2019-06-09T22:18:43.687Z,22.40
2019-06-09T22:21:15.229Z,22.40
2019-06-09T22:23:51.769Z,22.40
2019-06-09T22:26:25.428Z,22.40
2019-06-09T22:28:56.348Z,22.40
2019-06-09T22:31:28.656Z,22.50
2019-06-09T22:34:01.676Z,22.70
2019-06-09T22:36:33.299Z,22.80
2019-06-09T22:39:07.104Z,22.90
2019-06-09T22:41:38.627Z,23.00
2019-06-09T22:44:11.884Z,23.00
2019-06-09T22:46:43.199Z,23.00
2019-06-09T22:49:14.615Z,23.00
2019-06-09T22:51:46.249Z,23.00
2019-06-09T22:54:17.712Z,23.00
2019-06-09T22:56:51.949Z,23.10
2019-06-09T22:59:24.344Z,23.10
2019-06-09T23:01:58.315Z,23.10
2019-06-09T23:04:30.357Z,23.10
2019-06-09T23:07:03.425Z,23.10
2019-06-09T23:09:35.109Z,23.10
2019-06-09T23:12:08.186Z,23.00
2019-06-09T23:14:41.441Z,23.00
2019-06-09T23:17:21.620Z,23.00
2019-06-09T23:19:45.962Z,23.00
2019-06-09T23:22:17.672Z,23.00
2019-06-09T23:24:51.142Z,22.90
2019-06-09T23:27:22.422Z,22.90
2019-06-09T23:29:53.992Z,22.80
2019-06-09T23:32:25.632Z,22.70
2019-06-09T23:34:57.153Z,22.70
2019-06-09T23:37:28.727Z,22.60
2019-06-09T23:40:02.416Z,22.60
2019-06-09T23:42:33.776Z,22.60
2019-06-09T23:45:06.838Z,22.50
2019-06-09T23:47:44.483Z,22.50
2019-06-09T23:50:12.886Z,22.50
2019-06-09T23:52:44.343Z,22.40
2019-06-09T23:55:15.722Z,22.30
2019-06-09T23:57:47.208Z,22.30
